AirNav   Bose ProFlight Aviation Headset
 
 1476 users online  

67KY Estes Airport
Florence, Kentucky, USA

GOING TO FLORENCE?


FAA INFORMATION EFFECTIVE 13 SEPTEMBER 2018

Location

FAA Identifier: 67KY
Lat/Long: 38-59-00.2190N / 084-39-58.0000W
38-59.003650N / 084-39.966667W
38.9833942 / -84.6661111
(estimated)
Elevation: 890 ft. / 271 m (estimated)
Variation: 03W (1985)
From city: 2 miles SW of FLORENCE, KY
Time zone: UTC -4 (UTC -5 during Standard Time)
Zip code: 41042

Airport Operations

Airport use: Private use. Permission required prior to landing
Activation date: 08/1985
Control tower: no
ARTCC: INDIANAPOLIS CENTER
FSS: LOUISVILLE FLIGHT SERVICE STATION
Attendance: IREG
Wind indicator: yes
Segmented circle: no

Airport Communications

WX ASOS at CVG (4 nm N): PHONE 859-767-8210
WX ASOS at LUK (14 nm NE): PHONE 513-321-6291
WX AWOS-3PT at I67 (17 nm N): 118.15 (513-569-4964)

Nearby radio navigation aids

VOR radial/distance  VOR name  Freq  Var
CVGr142/2.6CINCINNATI VORTAC117.3004W
FLMr324/26.0FALMOUTH VOR/DME117.0004W

 
NDB name  Hdg/Dist  Freq  Var  ID
CINCINNATI239/18.533504WLUK .-.. ..- -.-
MADEIRA229/20.437904WMDE -- -.. .
SPORTYS259/21.724504WPWF .--. .-- ..-.
HOOK FIELD202/32.523904WHKF .... -.- ..-.
BATESVILLE133/35.125405WHLB .... .-.. -...

Airport Services

Runway Information

Runway 4/22

Dimensions: 1500 x 100 ft. / 457 x 30 m
Surface: turf
RUNWAY 4  RUNWAY 22
Traffic pattern: leftleft

Airport Ownership and Management from official FAA records

Ownership: Privately-owned
Owner: KENNETH RAY ESTES
7443 HOPEFUL CHURCH ROAD
FLORENCE, KY 41042
Phone 859-525-1675
Manager: KENNETH RAY ESTES
7443 HOPEFUL CHURCH ROAD
FLORENCE, KY 41042
Phone 859-525-1675

Airport Operational Statistics

Aircraft based on the field: 2
Single engine airplanes: 2
    

Instrument Procedures

There are no published instrument procedures at 67KY.

Some nearby airports with instrument procedures:

KCVG - Cincinnati/Northern Kentucky International Airport (4 nm N)
KLUK - Cincinnati Municipal Airport-Lunken Field (14 nm NE)
I67 - Cincinnati West Airport (17 nm N)
K62 - Gene Snyder Airport (21 nm SE)
I69 - Clermont County Airport (22 nm E)
 
Loc | Ops | Rwys | IFR | FBO | Links
Com | Nav | Svcs | Stats | Notes


 
Area around 67KY (Estes Airport)
 
Road maps at: MapQuest Bing Google
 
Aerial photo
No photo
 
Sectional chart

 
Airport distance calculator
Flying to Estes Airport? Find the distance to fly.

From to 67KY

Sunrise and sunset
Times for 21-Sep-2018
 Local
(UTC-4)
 Zulu
(UTC)
Morning civil twilight07:0011:00
Sunrise07:2611:26
Sunset19:3723:37
Evening civil twilight20:0400:04

Current date and time
Zulu (UTC)  21-Sep-2018 15:16:19
Local (UTC-4)  21-Sep-2018 11:16:19
 
METAR
KCVG 
4nm N 
211452Z 20010KT 10SM FEW035 FEW070 BKN120 26/21 A3005 RMK AO2 SLP163 VCSH SE T02560206 53005
KLUK 
14nm NE 
211453Z 21012KT 10SM BKN120 26/22 A3004 RMK AO2 SLP168 T02610217 53004
KI67 
17nm N 
211455Z AUTO 21012G19KT 10SM SCT120 27/19 A3002 RMK AO1
TAF
KCVG 
4nm N 
211143Z 2112/2218 20008KT P6SM SCT100 FM211800 23014G22KT P6SM VCSH SCT060 BKN100 TEMPO 2121/2122 3SM -TSRA BKN050CB FM212200 27010KT P6SM VCTS BKN040CB BKN180 FM220100 33011KT P6SM SCT012 SCT060 BKN180 FM220400 03012KT P6SM SCT012 BKN180
KLUK 
14nm NE 
211143Z 2112/2212 18003KT P6SM SCT100 FM211400 21010KT P6SM FEW060 SCT100 FM211800 23014G22KT P6SM VCSH SCT060 BKN100 TEMPO 2121/2122 3SM -TSRA BKN060CB FM212200 26011KT P6SM VCTS BKN040CB BKN180 FM220100 32009KT P6SM SCT015 SCT060 BKN180 FM220400 02011KT P6SM SCT015 BKN180
NOTAMs
Click for the latest NOTAMs
NOTAMs are issued by the DoD/FAA and will open in a separate window not controlled by AirNav.

 

 
 

Would you like to see your business listed on this page?

 If your business provides an interesting product or service to pilots, flight crews, aircraft, or users of the Estes Airport, you should consider listing it here.  To start the listing process, click on the button below
 
Add a business
 

Other Pages about Estes Airport

Update a link
 
Copyright © AirNav, LLC. All rights reserved. Privacy Policy  Contact